Everson, Pennsylvania
Current Conditions -  °F | °C
As of 12:45 PM on Friday 21 Nov 2014 (Local Time) from KLBE Reporting Station
Overcast Overcast  
Wind Chill: 15°   Ceiling: 5000
Heat Index: 25°   Visibility: 7mi
Dew Point: 10°   Wind: 9mph
Humidity: 54%   Direction: 280°W
Pressure: 30.46"   Gusts: NA
Location:  40.09°N, 79.59°W
Report Text: KLBE 211745Z 28008KT 7SM SCT026 OVC050 M04/M12 A3046
Loading
Personal Weather Stations






























Interactive Weather Map New forecast layout! Learn more

10-Day Weather Forecast

Advertisements
Track Severe Weather on mobile